createdAt,value
2022-09-14T00:03:07.337Z,1.40
2022-09-14T00:08:10.731Z,1.50
2022-09-14T00:13:14.841Z,1.17
2022-09-14T00:18:19.660Z,1.50
2022-09-14T00:23:22.420Z,1.50
2022-09-14T00:28:25.201Z,1.40
2022-09-14T00:33:29.291Z,1.15
2022-09-14T00:38:32.253Z,1.40
2022-09-14T00:43:51.972Z,1.70
2022-09-14T00:48:59.940Z,1.58
2022-09-14T00:54:03.570Z,1.48
2022-09-14T00:59:10.485Z,1.23
2022-09-14T01:04:14.635Z,1.45
2022-09-14T01:09:28.342Z,1.40
2022-09-14T01:14:36.061Z,1.90
2022-09-14T01:20:03.915Z,1.33
2022-09-14T01:25:16.880Z,1.80
2022-09-14T01:30:24.375Z,1.27
2022-09-14T01:35:31.987Z,1.60
2022-09-14T01:40:38.369Z,1.80
2022-09-14T01:45:47.243Z,1.42
2022-09-14T01:50:54.220Z,1.73
2022-09-14T01:56:02.102Z,1.70
2022-09-14T02:01:10.194Z,1.75
2022-09-14T02:06:20.753Z,1.63
2022-09-14T02:11:23.767Z,1.30
2022-09-14T02:16:28.359Z,2.25
2022-09-14T02:21:33.169Z,1.80
2022-09-14T02:26:37.249Z,1.95
2022-09-14T02:31:54.955Z,2.10
2022-09-14T02:37:03.050Z,2.10
2022-09-14T02:42:18.047Z,1.75
2022-09-14T02:47:27.139Z,1.80
2022-09-14T02:52:35.069Z,2.10
2022-09-14T02:58:06.974Z,1.55
2022-09-14T03:03:12.824Z,2.03
2022-09-14T03:08:16.000Z,2.10
2022-09-14T03:13:19.073Z,2.15
2022-09-14T03:18:23.143Z,2.10
2022-09-14T03:23:25.845Z,1.83
2022-09-14T03:28:28.564Z,2.10
2022-09-14T03:33:32.679Z,2.25
2022-09-14T03:38:35.406Z,1.70
2022-09-14T03:43:38.436Z,2.20
2022-09-14T03:48:43.131Z,2.50
2022-09-14T03:53:46.557Z,2.28
2022-09-14T03:58:50.208Z,2.20
2022-09-14T04:03:54.328Z,2.80
2022-09-14T04:08:57.136Z,2.08
2022-09-14T04:14:02.341Z,2.60
2022-09-14T04:19:06.454Z,2.53
2022-09-14T04:24:15.865Z,2.15
2022-09-14T04:29:18.990Z,2.50
2022-09-14T04:34:23.117Z,2.58
2022-09-14T04:39:26.308Z,3.20
2022-09-14T04:44:29.322Z,2.97
2022-09-14T04:49:33.511Z,3.08
2022-09-14T04:54:36.241Z,2.70
2022-09-14T04:59:38.993Z,2.97
2022-09-14T05:04:43.123Z,2.50
2022-09-14T05:09:45.969Z,2.03
2022-09-14T05:14:48.818Z,2.30
2022-09-14T05:19:53.666Z,3.33
2022-09-14T05:24:56.455Z,2.53
2022-09-14T05:29:59.210Z,1.90
2022-09-14T05:35:03.909Z,2.40
2022-09-14T05:40:08.713Z,2.25
2022-09-14T05:45:11.913Z,2.17
2022-09-14T05:50:16.423Z,2.65
2022-09-14T05:55:19.189Z,2.28
2022-09-14T06:00:22.573Z,2.78
2022-09-14T06:05:26.756Z,2.38
2022-09-14T06:10:29.560Z,2.40
2022-09-14T06:15:34.982Z,2.28
2022-09-14T06:20:39.405Z,2.50
2022-09-14T06:25:42.148Z,2.10
2022-09-14T06:30:45.195Z,2.20
2022-09-14T06:35:57.544Z,2.50
2022-09-14T06:41:01.750Z,2.30
2022-09-14T06:46:07.395Z,2.03
2022-09-14T06:51:20.166Z,2.60
2022-09-14T06:56:22.957Z,2.10
2022-09-14T07:01:26.780Z,2.85
2022-09-14T07:06:32.500Z,2.13
2022-09-14T07:11:35.606Z,2.53
2022-09-14T07:16:40.165Z,2.40
2022-09-14T07:21:44.813Z,2.22
2022-09-14T07:26:47.667Z,2.30
2022-09-14T07:31:52.718Z,1.80
2022-09-14T07:36:57.029Z,1.90
2022-09-14T07:42:01.776Z,5.07
2022-09-14T07:47:05.092Z,2.00
2022-09-14T07:52:09.509Z,1.75
2022-09-14T07:57:12.351Z,2.70
2022-09-14T08:02:31.085Z,2.38
2022-09-14T08:07:35.610Z,2.15
2022-09-14T08:12:38.629Z,1.65
2022-09-14T08:17:41.953Z,2.22
2022-09-14T08:22:49.271Z,2.17
2022-09-14T08:27:52.142Z,1.60
2022-09-14T08:32:58.886Z,1.58
2022-09-14T08:38:05.450Z,1.65
2022-09-14T08:43:11.681Z,1.88
2022-09-14T08:48:22.204Z,1.08
2022-09-14T08:53:27.075Z,0.95
2022-09-14T08:58:48.618Z,1.45
2022-09-14T09:04:06.008Z,1.30
2022-09-14T09:09:18.975Z,1.40
2022-09-14T09:14:28.367Z,0.90
2022-09-14T09:19:34.625Z,1.30
2022-09-14T09:24:42.962Z,1.65
2022-09-14T09:29:45.794Z,1.63
2022-09-14T09:34:49.817Z,1.30
2022-09-14T09:40:36.313Z,1.20
2022-09-14T09:45:58.710Z,1.30
2022-09-14T09:51:07.982Z,1.20
2022-09-14T09:56:18.854Z,1.02
2022-09-14T10:01:27.673Z,1.10
2022-09-14T10:06:30.669Z,1.35
2022-09-14T10:11:37.888Z,1.35
2022-09-14T10:16:42.057Z,1.55
2022-09-14T10:22:17.709Z,1.10
2022-09-14T10:27:38.030Z,1.40
2022-09-14T10:32:44.450Z,1.10
2022-09-14T10:37:58.049Z,1.30
2022-09-14T10:43:14.328Z,1.80
2022-09-14T10:48:31.978Z,1.15
2022-09-14T10:53:50.167Z,1.17
2022-09-14T10:59:24.005Z,1.15
2022-09-14T11:04:48.486Z,1.27
2022-09-14T11:10:01.904Z,1.27
2022-09-14T11:15:15.242Z,0.90
2022-09-14T11:20:26.619Z,1.27
2022-09-14T11:25:37.718Z,1.95
2022-09-14T11:30:47.168Z,1.42
2022-09-14T11:35:54.296Z,1.35
2022-09-14T11:41:03.230Z,1.10
2022-09-14T11:46:12.537Z,1.58
2022-09-14T11:51:22.493Z,1.50
2022-09-14T11:56:28.338Z,1.20
2022-09-14T12:01:36.874Z,1.42
2022-09-14T12:06:49.628Z,2.65
2022-09-14T12:11:54.968Z,2.13
2022-09-14T12:22:45.019Z,1.30
2022-09-14T12:27:51.785Z,1.58
2022-09-14T12:32:55.938Z,1.48
2022-09-14T12:37:59.005Z,1.88
2022-09-14T12:43:48.388Z,1.60
2022-09-14T12:49:02.727Z,1.45
2022-09-14T12:54:18.661Z,1.33
2022-09-14T12:59:25.802Z,1.60
2022-09-14T13:04:33.130Z,1.37
2022-09-14T13:09:38.597Z,3.15
2022-09-14T13:14:49.666Z,1.40
2022-09-14T13:19:59.011Z,1.60
2022-09-14T13:25:02.451Z,1.42
2022-09-14T13:30:08.150Z,1.45
2022-09-14T13:35:18.864Z,1.35
2022-09-14T13:40:25.113Z,1.60
2022-09-14T13:45:28.508Z,1.48
2022-09-14T13:50:34.797Z,1.50
2022-09-14T13:55:45.492Z,1.52
2022-09-14T14:00:58.225Z,1.35
2022-09-14T14:06:20.265Z,2.15
2022-09-14T14:11:29.999Z,1.40
2022-09-14T14:22:13.034Z,1.30
2022-09-14T14:44:53.958Z,0.80
2022-09-14T14:55:37.459Z,1.08
2022-09-14T15:01:05.621Z,1.10
2022-09-14T15:06:39.752Z,2.08
2022-09-14T15:11:45.765Z,2.35
2022-09-14T15:16:50.560Z,1.42
2022-09-14T15:22:02.490Z,0.73
2022-09-14T15:27:07.036Z,1.17
2022-09-14T15:32:10.016Z,1.10
2022-09-14T15:37:12.894Z,0.60
2022-09-14T15:42:17.838Z,0.60
2022-09-14T15:47:20.598Z,0.95
2022-09-14T15:52:23.638Z,0.65
2022-09-14T15:57:28.958Z,1.38
2022-09-14T16:02:31.849Z,0.90
2022-09-14T16:07:34.974Z,1.00
2022-09-14T16:12:39.171Z,2.00
2022-09-14T16:17:42.056Z,0.90
2022-09-14T16:22:44.887Z,0.90
2022-09-14T16:27:49.903Z,1.45
2022-09-14T16:32:53.003Z,0.90
2022-09-14T16:37:55.841Z,1.05
2022-09-14T16:43:00.150Z,1.10
2022-09-14T16:48:03.692Z,0.90
2022-09-14T16:53:06.533Z,0.80
2022-09-14T16:58:15.221Z,0.80
2022-09-14T17:03:18.239Z,1.02
2022-09-14T17:08:21.187Z,0.85
2022-09-14T17:13:26.230Z,1.05
2022-09-14T17:18:29.446Z,1.00
2022-09-14T17:23:32.707Z,1.00
2022-09-14T17:28:37.765Z,0.90
2022-09-14T17:33:40.620Z,1.00
2022-09-14T17:38:44.656Z,1.00
2022-09-14T17:43:53.543Z,1.13
2022-09-14T17:48:58.477Z,1.00
2022-09-14T17:54:02.838Z,1.05
2022-09-14T17:59:08.775Z,1.38
2022-09-14T18:04:13.268Z,1.40
2022-09-14T18:09:17.527Z,1.30
2022-09-14T18:14:21.683Z,1.30
2022-09-14T18:19:24.710Z,1.38
2022-09-14T18:24:27.682Z,2.00
2022-09-14T18:29:33.639Z,1.35
2022-09-14T18:34:36.919Z,1.85
2022-09-14T18:39:39.739Z,1.80
2022-09-14T18:44:45.195Z,2.05
2022-09-14T18:49:49.436Z,1.95
2022-09-14T18:54:52.662Z,2.88
2022-09-14T18:59:57.032Z,2.28
2022-09-14T19:04:59.882Z,2.90
2022-09-14T19:10:03.084Z,2.88
2022-09-14T19:15:08.202Z,1.90
2022-09-14T19:20:11.706Z,1.65
2022-09-14T19:25:14.726Z,1.70
2022-09-14T19:30:19.232Z,1.48
2022-09-14T19:35:23.367Z,1.98
2022-09-14T19:40:27.661Z,2.28
2022-09-14T19:45:32.098Z,1.80
2022-09-14T19:50:35.207Z,1.70
2022-09-14T19:55:38.099Z,2.78
2022-09-14T20:00:42.619Z,1.88
2022-09-14T20:05:45.492Z,1.63
2022-09-14T20:10:48.297Z,1.70
2022-09-14T20:15:52.654Z,2.20
2022-09-14T20:20:55.492Z,2.25
2022-09-14T20:26:03.835Z,2.17
2022-09-14T20:31:12.006Z,2.00
2022-09-14T20:41:19.651Z,2.22
2022-09-14T20:46:25.620Z,2.10
2022-09-14T20:51:29.812Z,2.15
2022-09-14T20:56:35.231Z,2.10
2022-09-14T21:01:41.662Z,1.88
2022-09-14T21:06:47.701Z,1.67
2022-09-14T21:11:50.503Z,1.80
2022-09-14T21:16:56.739Z,2.15
2022-09-14T21:21:59.755Z,2.22
2022-09-14T21:27:02.537Z,1.70
2022-09-14T21:32:09.000Z,2.10
2022-09-14T21:37:12.193Z,1.98
2022-09-14T21:42:14.961Z,1.80
2022-09-14T21:47:19.126Z,2.00
2022-09-14T21:52:21.898Z,2.13
2022-09-14T21:57:24.899Z,2.08
2022-09-14T22:02:29.334Z,1.80
2022-09-14T22:07:32.125Z,2.50
2022-09-14T22:12:35.049Z,3.67
2022-09-14T22:17:39.268Z,7.15
2022-09-14T22:22:44.249Z,6.13
2022-09-14T22:27:47.094Z,4.65
2022-09-14T22:32:51.214Z,4.10
2022-09-14T22:37:53.986Z,2.88
2022-09-14T22:42:56.745Z,2.85
2022-09-14T22:48:02.370Z,2.83
2022-09-14T22:53:05.462Z,2.17
2022-09-14T22:58:08.665Z,2.85
2022-09-14T23:03:14.165Z,2.22
2022-09-14T23:08:17.044Z,2.13
2022-09-14T23:13:20.104Z,2.17
2022-09-14T23:18:24.216Z,2.40
2022-09-14T23:23:26.928Z,2.45
2022-09-14T23:28:29.883Z,2.30
2022-09-14T23:33:34.497Z,2.28
2022-09-14T23:38:37.281Z,2.10
2022-09-14T23:43:40.160Z,1.92
2022-09-14T23:48:44.960Z,2.33
2022-09-14T23:53:47.984Z,1.77
2022-09-14T23:58:50.957Z,1.77
